Terminal Aerodrome Forecast
Issued by NWS Duluth, MN

Home | Current Version | Previous Version | Text Only | Print | Product List | Glossary On
Versions: 1 2 3 4 5 6 7 8 9 10 11 12 13 14
000
FTUS43 KDLH 051800 AAA
TAFINL
TAF AMD
KINL 051801Z 0518/0618 15010G17KT P6SM SKC
     FM060000 15006KT P6SM SKC
     FM061500 14005KT P6SM SCT030 BKN060=

USA.gov is the U.S. government's official web portal to all federal, state and local government web resources and services.